Time;durP1;ratioP1;P1;durP2;ratioP2;P2;SDS_P1;SDS_P2;PMS_P1;PMS_P2;Temp;Humidity;BMP_temperature;BMP_pressure;BME280_temperature;BME280_humidity;BME280_pressure;Samples;Min_cycle;Max_cycle;Signal;HPM_P1;HPM_P2
2022/03/14 00:00:43;;;;;;;0.60;0.57;;;;;;;;;;4993716;28;20469;-76
2022/03/14 00:03:10;;;;;;;0.60;0.60;;;;;;;;;;4993686;28;20531;-76
2022/03/14 00:05:36;;;;;;;0.53;0.53;;;;;;;;;;4995025;28;20401;-76
2022/03/14 00:08:02;;;;;;;0.87;0.50;;;;;;;;;;4980240;28;20429;-79
2022/03/14 00:10:28;;;;;;;0.43;0.43;;;;;;;;;;4997455;28;20418;-79
2022/03/14 00:12:56;;;;;;;0.70;0.70;;;;;;;;;;4997820;28;20493;-77
2022/03/14 00:15:23;;;;;;;0.40;0.40;;;;;;;;;;4997542;28;20413;-78
2022/03/14 00:17:49;;;;;;;0.50;0.50;;;;;;;;;;4997219;28;20596;-77
2022/03/14 00:20:15;;;;;;;2.23;0.50;;;;;;;;;;4997288;28;20481;-76
2022/03/14 00:22:43;;;;;;;0.57;0.57;;;;;;;;;;4997454;28;20414;-78
2022/03/14 00:25:10;;;;;;;0.40;0.40;;;;;;;;;;4997198;28;20410;-78
2022/03/14 00:27:36;;;;;;;0.40;0.40;;;;;;;;;;4997251;28;20496;-77
2022/03/14 00:30:04;;;;;;;0.60;0.40;;;;;;;;;;4997050;28;20403;-72
2022/03/14 00:32:30;;;;;;;0.47;0.47;;;;;;;;;;4979551;28;20908;-78
2022/03/14 00:34:56;;;;;;;0.50;0.50;;;;;;;;;;4996925;28;20905;-79
2022/03/14 00:37:22;;;;;;;0.50;0.50;;;;;;;;;;4996879;28;20504;-77
2022/03/14 00:39:49;;;;;;;0.40;0.40;;;;;;;;;;4996789;28;20493;-74
2022/03/14 00:42:15;;;;;;;0.77;0.77;;;;;;;;;;4996904;28;20389;-77
2022/03/14 00:44:42;;;;;;;0.90;0.90;;;;;;;;;;4996841;28;20409;-80
2022/03/14 00:47:08;;;;;;;0.97;0.97;;;;;;;;;;4979298;28;20430;-76
2022/03/14 00:49:34;;;;;;;0.97;0.97;;;;;;;;;;4996656;28;20424;-76
2022/03/14 00:52:01;;;;;;;4.63;1.27;;;;;;;;;;4996658;28;20418;-76
2022/03/14 00:54:27;;;;;;;0.93;0.93;;;;;;;;;;4996631;28;21012;-76
2022/03/14 00:56:53;;;;;;;1.17;1.17;;;;;;;;;;4996544;28;20410;-74
2022/03/14 00:59:20;;;;;;;1.10;1.10;;;;;;;;;;4996504;28;20951;-77
2022/03/14 01:01:46;;;;;;;2.20;2.20;;;;;;;;;;4979052;28;20434;-76
2022/03/14 01:04:12;;;;;;;1.30;1.30;;;;;;;;;;4996679;28;20394;-77
2022/03/14 01:06:38;;;;;;;1.20;1.20;;;;;;;;;;4996209;28;20964;-76
2022/03/14 01:09:05;;;;;;;1.00;1.00;;;;;;;;;;4996330;28;20401;-75
2022/03/14 01:11:31;;;;;;;2.00;1.27;;;;;;;;;;4996254;28;20469;-75
2022/03/14 01:13:57;;;;;;;0.93;0.93;;;;;;;;;;4996399;28;20414;-75
2022/03/14 01:16:23;;;;;;;1.23;1.23;;;;;;;;;;4995972;28;20821;-73
2022/03/14 01:18:49;;;;;;;1.30;1.17;;;;;;;;;;4978717;28;20424;-71
2022/03/14 01:21:15;;;;;;;1.57;1.00;;;;;;;;;;4995996;28;20477;-72
2022/03/14 01:23:41;;;;;;;1.10;1.10;;;;;;;;;;4996114;28;20410;-72
2022/03/14 01:26:09;;;;;;;1.20;1.20;;;;;;;;;;4996006;28;20414;-75
2022/03/14 01:28:35;;;;;;;0.70;0.70;;;;;;;;;;4996015;28;20409;-71
2022/03/14 01:31:01;;;;;;;1.20;1.20;;;;;;;;;;4995897;28;20410;-71
2022/03/14 01:33:27;;;;;;;1.27;0.83;;;;;;;;;;4995941;28;20433;-72
2022/03/14 01:35:53;;;;;;;0.70;0.70;;;;;;;;;;4995947;28;20440;-74
2022/03/14 01:38:19;;;;;;;0.87;0.87;;;;;;;;;;4995857;28;20422;-72
2022/03/14 01:40:45;;;;;;;1.00;1.00;;;;;;;;;;4995777;28;20451;-70
2022/03/14 01:43:11;;;;;;;1.00;1.00;;;;;;;;;;4995750;28;20448;-73
2022/03/14 01:45:37;;;;;;;1.50;1.00;;;;;;;;;;4996007;28;20462;-74
2022/03/14 01:48:05;;;;;;;0.80;0.80;;;;;;;;;;4995588;28;20399;-74
2022/03/14 01:50:30;;;;;;;0.77;0.77;;;;;;;;;;4995583;28;20405;-71
2022/03/14 01:52:56;;;;;;;0.87;0.87;;;;;;;;;;4995560;28;20406;-71
2022/03/14 01:55:22;;;;;;;0.93;0.93;;;;;;;;;;4995518;28;20384;-74
2022/03/14 01:57:48;;;;;;;0.60;0.60;;;;;;;;;;4995424;28;20413;-74
2022/03/14 02:00:15;;;;;;;0.67;0.67;;;;;;;;;;4995282;28;20473;-73
2022/03/14 02:02:41;;;;;;;0.70;0.70;;;;;;;;;;4977854;28;20533;-72
2022/03/14 02:05:07;;;;;;;0.60;0.60;;;;;;;;;;4995350;28;20389;-73
2022/03/14 02:07:34;;;;;;;0.50;0.50;;;;;;;;;;4995069;28;20473;-73
2022/03/14 02:10:01;;;;;;;1.73;0.70;;;;;;;;;;4977702;28;20425;-73
2022/03/14 02:12:27;;;;;;;0.53;0.53;;;;;;;;;;4995200;28;20473;-70
2022/03/14 02:14:53;;;;;;;0.60;0.60;;;;;;;;;;4995081;28;20384;-72
2022/03/14 02:17:20;;;;;;;0.77;0.77;;;;;;;;;;4995068;28;20426;-70
2022/03/14 02:19:46;;;;;;;0.93;0.60;;;;;;;;;;4994997;28;20462;-73
2022/03/14 02:22:13;;;;;;;0.50;0.50;;;;;;;;;;4995028;28;20426;-71
2022/03/14 02:24:40;;;;;;;0.60;0.60;;;;;;;;;;4995021;28;20422;-73
2022/03/14 02:27:07;;;;;;;0.80;0.80;;;;;;;;;;4994891;28;20409;-71
2022/03/14 02:29:33;;;;;;;0.60;0.60;;;;;;;;;;4994479;28;20717;-72
2022/03/14 02:31:59;;;;;;;0.60;0.60;;;;;;;;;;4994716;28;20503;-74
2022/03/14 02:34:25;;;;;;;0.60;0.60;;;;;;;;;;4995025;28;20396;-72
2022/03/14 02:36:51;;;;;;;1.17;1.17;;;;;;;;;;4994781;28;20420;-73
2022/03/14 02:39:17;;;;;;;0.50;0.50;;;;;;;;;;4994699;28;20458;-74
2022/03/14 02:41:43;;;;;;;0.50;0.50;;;;;;;;;;4994585;28;20465;-75
2022/03/14 02:44:09;;;;;;;0.40;0.40;;;;;;;;;;4977126;28;21023;-73
2022/03/14 02:46:39;;;;;;;0.50;0.50;;;;;;;;;;4994573;28;20927;-76
2022/03/14 02:49:06;;;;;;;0.40;0.40;;;;;;;;;;4994538;28;20388;-72
2022/03/14 02:51:34;;;;;;;0.50;0.50;;;;;;;;;;4994452;28;20405;-71
2022/03/14 02:54:01;;;;;;;0.50;0.50;;;;;;;;;;4994493;28;20387;-74
2022/03/14 02:56:27;;;;;;;0.60;0.60;;;;;;;;;;4994674;28;20372;-71
2022/03/14 02:58:54;;;;;;;0.40;0.40;;;;;;;;;;4994624;28;20435;-72
2022/03/14 03:01:21;;;;;;;0.40;0.40;;;;;;;;;;4994273;28;20459;-73
2022/03/14 03:03:48;;;;;;;0.40;0.40;;;;;;;;;;4994369;28;20875;-72
2022/03/14 03:06:14;;;;;;;0.50;0.50;;;;;;;;;;4994098;28;20464;-69
2022/03/14 03:08:44;;;;;;;0.50;0.50;;;;;;;;;;4976833;28;20429;-72
2022/03/14 03:11:13;;;;;;;0.40;0.40;;;;;;;;;;4994244;28;20497;-72
2022/03/14 03:13:43;;;;;;;0.57;0.57;;;;;;;;;;4994148;28;20887;-71
2022/03/14 03:16:13;;;;;;;1.13;1.13;;;;;;;;;;4994131;28;20515;-72
2022/03/14 03:18:39;;;;;;;0.60;0.60;;;;;;;;;;4994180;28;20475;-70
2022/03/14 03:21:05;;;;;;;0.60;0.60;;;;;;;;;;4994030;28;20810;-68
2022/03/14 03:23:33;;;;;;;2.50;0.63;;;;;;;;;;4994017;28;20376;-72
2022/03/14 03:25:59;;;;;;;0.40;0.40;;;;;;;;;;4976670;28;20561;-69
2022/03/14 03:28:25;;;;;;;0.60;0.60;;;;;;;;;;4994106;28;20414;-73
2022/03/14 03:30:51;;;;;;;0.53;0.53;;;;;;;;;;4994009;28;20392;-72
2022/03/14 03:33:17;;;;;;;0.50;0.50;;;;;;;;;;4993934;28;20388;-71
2022/03/14 03:35:43;;;;;;;1.50;1.50;;;;;;;;;;4993980;28;20392;-72
2022/03/14 03:38:09;;;;;;;1.60;1.60;;;;;;;;;;4994204;28;20369;-70
2022/03/14 03:40:35;;;;;;;0.80;0.80;;;;;;;;;;4997197;28;20952;-73
2022/03/14 03:43:01;;;;;;;1.53;1.00;;;;;;;;;;4997989;28;20399;-73
2022/03/14 03:45:27;;;;;;;1.70;0.90;;;;;;;;;;4997870;28;20773;-71
2022/03/14 03:47:54;;;;;;;0.60;0.60;;;;;;;;;;4997853;28;20409;-69
2022/03/14 03:50:20;;;;;;;1.00;0.70;;;;;;;;;;4997783;28;20849;-71
2022/03/14 03:52:46;;;;;;;0.70;0.60;;;;;;;;;;4997812;28;20461;-72
2022/03/14 03:55:12;;;;;;;0.70;0.70;;;;;;;;;;4997959;28;20409;-71
2022/03/14 03:57:38;;;;;;;3.03;0.70;;;;;;;;;;4997635;28;20512;-73
2022/03/14 04:00:06;;;;;;;0.60;0.60;;;;;;;;;;4997541;28;20924;-74
2022/03/14 04:02:36;;;;;;;0.67;0.60;;;;;;;;;;4997514;28;20425;-74
2022/03/14 04:05:02;;;;;;;0.70;0.70;;;;;;;;;;4980044;28;20425;-68
2022/03/14 04:07:32;;;;;;;1.07;0.97;;;;;;;;;;4997385;28;20448;-70
2022/03/14 04:09:59;;;;;;;6.00;1.00;;;;;;;;;;4997685;28;20401;-74
2022/03/14 04:12:28;;;;;;;1.70;0.80;;;;;;;;;;4997313;28;20389;-70
2022/03/14 04:14:56;;;;;;;0.97;0.70;;;;;;;;;;4997357;28;20380;-69
2022/03/14 04:17:25;;;;;;;2.10;0.90;;;;;;;;;;4997307;28;20388;-72
2022/03/14 04:19:52;;;;;;;2.00;0.60;;;;;;;;;;4997407;28;20439;-73
2022/03/14 04:22:19;;;;;;;4.90;1.20;;;;;;;;;;4997090;28;20928;-73
2022/03/14 04:24:45;;;;;;;0.97;0.80;;;;;;;;;;4979745;28;20429;-73
2022/03/14 04:27:11;;;;;;;2.63;1.00;;;;;;;;;;4997073;28;20392;-74
2022/03/14 04:29:37;;;;;;;2.90;0.90;;;;;;;;;;4997341;28;20451;-73
2022/03/14 04:32:03;;;;;;;0.90;0.60;;;;;;;;;;4997007;28;20416;-74
2022/03/14 04:34:29;;;;;;;3.23;0.90;;;;;;;;;;4996992;28;20856;-74
2022/03/14 04:36:55;;;;;;;1.23;0.57;;;;;;;;;;4997044;28;20917;-73
2022/03/14 04:39:21;;;;;;;2.30;0.93;;;;;;;;;;4996942;28;20389;-73
2022/03/14 04:41:47;;;;;;;1.83;0.77;;;;;;;;;;4996801;28;20877;-72
2022/03/14 04:44:14;;;;;;;1.70;0.83;;;;;;;;;;4996841;28;20467;-73
2022/03/14 04:46:40;;;;;;;1.67;0.77;;;;;;;;;;4996845;28;20404;-72
2022/03/14 04:49:08;;;;;;;5.97;1.20;;;;;;;;;;4996754;28;20381;-71
2022/03/14 04:51:36;;;;;;;5.17;0.97;;;;;;;;;;4996097;28;20492;-74
2022/03/14 04:54:02;;;;;;;6.90;1.73;;;;;;;;;;4996642;28;20455;-72
2022/03/14 04:56:28;;;;;;;4.03;1.40;;;;;;;;;;4996878;28;20508;-73
2022/03/14 04:58:54;;;;;;;1.67;0.90;;;;;;;;;;4996574;28;20520;-72
2022/03/14 05:01:23;;;;;;;7.37;1.33;;;;;;;;;;4996428;28;20477;-71
2022/03/14 05:03:49;;;;;;;3.60;1.10;;;;;;;;;;4996552;28;20381;-74
2022/03/14 05:06:16;;;;;;;8.10;1.33;;;;;;;;;;4996405;28;20484;-73
2022/03/14 05:08:42;;;;;;;3.40;1.00;;;;;;;;;;4996281;28;20421;-73
2022/03/14 05:11:10;;;;;;;1.10;1.03;;;;;;;;;;4996215;28;20453;-73
2022/03/14 05:13:36;;;;;;;1.27;0.90;;;;;;;;;;4996199;28;20971;-71
2022/03/14 05:16:02;;;;;;;2.10;1.20;;;;;;;;;;4996232;28;20457;-72
2022/03/14 05:18:28;;;;;;;1.73;1.20;;;;;;;;;;4996169;28;20419;-72
2022/03/14 05:20:54;;;;;;;4.47;0.97;;;;;;;;;;4978569;28;20469;-71
2022/03/14 05:23:20;;;;;;;3.17;1.07;;;;;;;;;;4996117;28;20906;-73
2022/03/14 05:25:47;;;;;;;3.30;0.87;;;;;;;;;;4996121;28;20383;-71
2022/03/14 05:28:13;;;;;;;3.23;0.90;;;;;;;;;;4995999;28;20402;-73
2022/03/14 05:30:39;;;;;;;2.50;1.63;;;;;;;;;;4995997;28;20460;-72
2022/03/14 05:33:05;;;;;;;4.33;0.90;;;;;;;;;;4995878;28;20475;-74
2022/03/14 05:35:31;;;;;;;1.07;0.97;;;;;;;;;;4995875;28;20440;-74
2022/03/14 05:37:57;;;;;;;3.37;0.93;;;;;;;;;;4978292;28;20433;-74
2022/03/14 05:40:23;;;;;;;4.97;1.00;;;;;;;;;;4995605;28;20552;-74
2022/03/14 05:42:49;;;;;;;6.17;3.77;;;;;;;;;;4995701;28;20709;-71
2022/03/14 05:45:16;;;;;;;1.50;1.40;;;;;;;;;;4995660;28;20872;-74
2022/03/14 05:47:42;;;;;;;2.20;1.03;;;;;;;;;;4995613;28;20413;-74
2022/03/14 05:50:08;;;;;;;2.50;1.00;;;;;;;;;;4995576;28;20497;-74
2022/03/14 05:52:34;;;;;;;4.13;1.30;;;;;;;;;;4995476;28;20878;-73
2022/03/14 05:55:00;;;;;;;3.10;1.80;;;;;;;;;;4995634;28;20472;-73
2022/03/14 05:57:26;;;;;;;3.43;1.70;;;;;;;;;;4995485;28;20384;-73
2022/03/14 05:59:52;;;;;;;4.27;1.40;;;;;;;;;;4995300;28;20431;-72
2022/03/14 06:02:20;;;;;;;5.07;1.53;;;;;;;;;;4994745;28;20425;-71
2022/03/14 06:04:46;;;;;;;1.70;1.10;;;;;;;;;;4995008;28;20464;-74
2022/03/14 06:07:12;;;;;;;6.03;1.27;;;;;;;;;;4995060;28;20448;-74
2022/03/14 06:09:38;;;;;;;3.80;1.53;;;;;;;;;;4995456;28;20380;-72
2022/03/14 06:12:04;;;;;;;1.50;1.30;;;;;;;;;;4995236;28;20400;-74
2022/03/14 06:14:30;;;;;;;5.40;1.63;;;;;;;;;;4995168;28;20453;-73
2022/03/14 06:16:56;;;;;;;2.77;1.53;;;;;;;;;;4995029;28;20425;-75
2022/03/14 06:19:22;;;;;;;3.10;1.60;;;;;;;;;;4995266;28;20402;-74
2022/03/14 06:21:48;;;;;;;2.60;1.43;;;;;;;;;;4994930;28;20443;-75
2022/03/14 06:24:14;;;;;;;11.90;2.60;;;;;;;;;;4995013;28;20505;-75
2022/03/14 06:26:40;;;;;;;7.50;2.30;;;;;;;;;;4994911;28;20728;-74
2022/03/14 06:29:06;;;;;;;4.90;2.07;;;;;;;;;;4994936;28;20936;-70
2022/03/14 06:31:32;;;;;;;7.17;2.30;;;;;;;;;;4994878;28;20396;-67
2022/03/14 06:33:59;;;;;;;5.73;2.27;;;;;;;;;;4977314;28;20895;-68
2022/03/14 06:36:26;;;;;;;5.80;2.20;;;;;;;;;;4994714;28;20435;-68
2022/03/14 06:38:53;;;;;;;6.20;1.77;;;;;;;;;;4994636;28;20410;-68
2022/03/14 06:41:19;;;;;;;3.03;1.20;;;;;;;;;;4994638;28;20477;-67
2022/03/14 06:43:45;;;;;;;4.27;1.70;;;;;;;;;;4994572;28;20384;-68
2022/03/14 06:46:11;;;;;;;3.80;0.90;;;;;;;;;;4994575;28;20402;-69
2022/03/14 06:48:40;;;;;;;2.33;1.40;;;;;;;;;;4994572;28;20481;-68
2022/03/14 06:51:07;;;;;;;3.03;1.20;;;;;;;;;;4994440;28;20897;-71
2022/03/14 06:53:33;;;;;;;2.40;1.20;;;;;;;;;;4994442;28;20964;-72
2022/03/14 06:55:59;;;;;;;2.00;1.37;;;;;;;;;;4994462;28;20387;-72
2022/03/14 06:58:25;;;;;;;3.13;1.40;;;;;;;;;;4994371;28;20489;-70
2022/03/14 07:00:51;;;;;;;2.57;1.27;;;;;;;;;;4994263;28;20494;-71
2022/03/14 07:03:17;;;;;;;5.50;2.10;;;;;;;;;;4976793;28;20433;-71
2022/03/14 07:05:43;;;;;;;3.80;1.60;;;;;;;;;;4994310;28;20425;-71
2022/03/14 07:08:10;;;;;;;1.53;1.43;;;;;;;;;;4994257;28;20508;-72
2022/03/14 07:10:36;;;;;;;2.40;1.30;;;;;;;;;;4994265;28;20402;-70
2022/03/14 07:13:03;;;;;;;2.43;1.47;;;;;;;;;;4994364;28;20417;-71
2022/03/14 07:15:29;;;;;;;9.87;8.83;;;;;;;;;;4994167;28;20417;-72
2022/03/14 07:17:55;;;;;;;17.60;12.13;;;;;;;;;;4994021;28;20425;-66
2022/03/14 07:20:23;;;;;;;13.40;7.00;;;;;;;;;;4993913;28;20469;-71
2022/03/14 07:22:49;;;;;;;5.83;2.50;;;;;;;;;;4994134;28;20412;-71
2022/03/14 07:25:15;;;;;;;2.33;1.73;;;;;;;;;;4994126;28;20410;-72
2022/03/14 07:27:41;;;;;;;4.57;1.27;;;;;;;;;;4993958;28;20402;-71
2022/03/14 07:30:07;;;;;;;2.53;1.90;;;;;;;;;;4976513;28;20948;-73
2022/03/14 07:32:33;;;;;;;2.20;1.60;;;;;;;;;;4994023;28;20422;-67
2022/03/14 07:34:59;;;;;;;8.00;2.13;;;;;;;;;;4993911;28;20410;-69
2022/03/14 07:37:25;;;;;;;13.03;2.27;;;;;;;;;;4993982;28;20417;-70
2022/03/14 07:39:51;;;;;;;2.13;1.30;;;;;;;;;;4994043;28;20484;-70
2022/03/14 07:42:17;;;;;;;1.87;1.30;;;;;;;;;;4993878;28;20920;-70
2022/03/14 07:44:43;;;;;;;3.50;1.47;;;;;;;;;;4993945;28;20402;-71
2022/03/14 07:47:10;;;;;;;2.13;1.20;;;;;;;;;;4993802;28;20453;-71
2022/03/14 07:49:37;;;;;;;6.53;1.40;;;;;;;;;;4994110;28;20510;-71
2022/03/14 07:52:03;;;;;;;2.23;1.07;;;;;;;;;;4993775;28;20421;-68
2022/03/14 07:54:29;;;;;;;3.90;1.40;;;;;;;;;;4993752;28;20412;-69
2022/03/14 07:56:55;;;;;;;3.40;1.37;;;;;;;;;;4976511;28;20512;-69
2022/03/14 07:59:21;;;;;;;8.13;1.20;;;;;;;;;;4993710;28;20421;-69
2022/03/14 08:01:47;;;;;;;9.40;1.30;;;;;;;;;;4993670;28;20473;-70
2022/03/14 08:04:13;;;;;;;1.97;1.27;;;;;;;;;;4993666;28;20496;-71
2022/03/14 08:06:41;;;;;;;5.80;1.40;;;;;;;;;;4993486;28;20472;-68
2022/03/14 08:09:08;;;;;;;4.57;1.40;;;;;;;;;;4993735;28;20436;-69
2022/03/14 08:11:35;;;;;;;5.53;1.33;;;;;;;;;;4993660;28;20488;-67
2022/03/14 08:14:01;;;;;;;3.23;1.20;;;;;;;;;;4993691;28;20414;-68
2022/03/14 08:16:27;;;;;;;1.40;1.30;;;;;;;;;;4993615;28;20424;-68
2022/03/14 08:18:53;;;;;;;6.10;1.60;;;;;;;;;;4993610;28;20416;-68
2022/03/14 08:21:19;;;;;;;11.00;1.87;;;;;;;;;;4993445;28;20556;-68
2022/03/14 08:23:46;;;;;;;1.20;1.00;;;;;;;;;;4993688;28;20414;-68
2022/03/14 08:26:12;;;;;;;2.60;1.60;;;;;;;;;;4994434;28;20420;-67
2022/03/14 08:28:40;;;;;;;4.40;2.00;;;;;;;;;;4997124;28;20409;-69
2022/03/14 08:31:07;;;;;;;2.30;1.53;;;;;;;;;;4997095;28;20775;-68
2022/03/14 08:33:34;;;;;;;2.43;1.13;;;;;;;;;;4997042;28;20799;-67
2022/03/14 08:36:02;;;;;;;2.57;1.00;;;;;;;;;;4997282;28;20442;-66
2022/03/14 08:38:28;;;;;;;5.23;1.00;;;;;;;;;;4997011;28;20881;-66
2022/03/14 08:40:54;;;;;;;2.40;1.10;;;;;;;;;;4996862;28;20986;-66
2022/03/14 08:43:20;;;;;;;1.77;1.37;;;;;;;;;;4996868;28;20402;-67
2022/03/14 08:45:46;;;;;;;1.60;1.50;;;;;;;;;;4996803;28;20416;-67
2022/03/14 08:48:12;;;;;;;6.87;2.10;;;;;;;;;;4996627;28;20928;-67
2022/03/14 08:50:40;;;;;;;2.70;1.37;;;;;;;;;;4996748;28;20433;-67
2022/03/14 08:53:06;;;;;;;1.47;0.90;;;;;;;;;;4996601;28;20402;-67
2022/03/14 08:55:32;;;;;;;1.73;1.40;;;;;;;;;;4996503;28;20496;-68
2022/03/14 08:57:58;;;;;;;1.83;1.17;;;;;;;;;;4996489;28;20464;-67
2022/03/14 09:00:27;;;;;;;1.90;1.00;;;;;;;;;;4996381;28;20461;-68
2022/03/14 09:02:53;;;;;;;4.10;1.33;;;;;;;;;;4996710;28;20425;-69
2022/03/14 09:05:20;;;;;;;0.97;0.97;;;;;;;;;;4996485;28;20390;-68
2022/03/14 09:07:46;;;;;;;4.30;1.37;;;;;;;;;;4996178;28;20484;-68
2022/03/14 09:10:12;;;;;;;2.30;1.37;;;;;;;;;;4996276;28;20409;-69
2022/03/14 09:12:38;;;;;;;3.07;1.17;;;;;;;;;;4978679;28;20461;-68
2022/03/14 09:15:05;;;;;;;3.70;0.97;;;;;;;;;;4978838;28;20426;-69
2022/03/14 09:17:32;;;;;;;2.13;1.07;;;;;;;;;;4996114;28;20426;-68
2022/03/14 09:19:58;;;;;;;3.90;1.77;;;;;;;;;;4996017;28;20808;-67
2022/03/14 09:22:24;;;;;;;5.83;3.20;;;;;;;;;;4996247;28;20501;-68
2022/03/14 09:24:52;;;;;;;4.53;1.40;;;;;;;;;;4996000;28;20405;-68
2022/03/14 09:27:18;;;;;;;3.40;1.00;;;;;;;;;;4996191;28;20868;-68
2022/03/14 09:29:45;;;;;;;2.93;1.13;;;;;;;;;;4995870;28;20480;-68
2022/03/14 09:32:13;;;;;;;2.73;1.00;;;;;;;;;;4995895;28;20422;-68
2022/03/14 09:34:39;;;;;;;2.17;1.10;;;;;;;;;;4995926;28;20398;-69
2022/03/14 09:37:05;;;;;;;2.50;1.00;;;;;;;;;;4995706;28;20413;-69
2022/03/14 09:39:33;;;;;;;1.70;1.30;;;;;;;;;;4978322;28;20429;-68
2022/03/14 09:42:01;;;;;;;2.53;1.10;;;;;;;;;;4995690;28;20527;-71
2022/03/14 09:44:28;;;;;;;1.53;1.17;;;;;;;;;;4995764;28;20406;-68
2022/03/14 09:46:55;;;;;;;4.10;1.10;;;;;;;;;;4995839;28;20417;-70
2022/03/14 09:49:22;;;;;;;2.27;1.63;;;;;;;;;;4995592;28;20425;-68
2022/03/14 09:51:49;;;;;;;1.43;1.30;;;;;;;;;;4995679;28;20493;-67
2022/03/14 09:54:15;;;;;;;1.73;1.13;;;;;;;;;;4995460;28;20410;-68
2022/03/14 09:56:41;;;;;;;2.10;1.20;;;;;;;;;;4995404;28;20405;-66
2022/03/14 09:59:09;;;;;;;1.33;1.23;;;;;;;;;;4977821;28;20436;-66
2022/03/14 10:01:36;;;;;;;2.60;1.77;;;;;;;;;;4995316;28;20479;-67
2022/03/14 10:04:02;;;;;;;4.30;1.80;;;;;;;;;;4995274;28;20406;-68
2022/03/14 10:06:29;;;;;;;1.30;0.97;;;;;;;;;;4994899;28;20882;-66
2022/03/14 10:08:55;;;;;;;1.00;1.00;;;;;;;;;;4995408;28;20410;-69
2022/03/14 10:11:21;;;;;;;3.43;1.57;;;;;;;;;;4995081;28;20427;-67
2022/03/14 10:13:47;;;;;;;1.37;0.97;;;;;;;;;;4995138;28;20908;-68
2022/03/14 10:16:13;;;;;;;4.27;1.50;;;;;;;;;;4995127;28;20418;-67
2022/03/14 10:19:13;;;;;;;1.67;1.00;;;;;;;;;;4995015;28;20402;-69
2022/03/14 10:21:39;;;;;;;2.37;1.33;;;;;;;;;;4952976;28;20580;-69
2022/03/14 10:24:07;;;;;;;2.20;0.90;;;;;;;;;;4994998;28;20410;-68
2022/03/14 10:26:33;;;;;;;1.70;1.17;;;;;;;;;;4994810;28;20411;-68
2022/03/14 10:29:00;;;;;;;5.77;1.53;;;;;;;;;;4977456;28;20465;-70
2022/03/14 10:31:30;;;;;;;2.60;1.10;;;;;;;;;;4994798;28;20508;-70
2022/03/14 10:34:04;;;;;;;1.43;0.97;;;;;;;;;;4994489;28;20415;-70
2022/03/14 10:36:42;;;;;;;2.00;1.20;;;;;;;;;;4994586;28;20775;-72
2022/03/14 10:39:19;;;;;;;3.27;1.50;;;;;;;;;;4994581;28;20458;-69
2022/03/14 10:41:46;;;;;;;1.90;1.40;;;;;;;;;;4994722;28;20482;-69
2022/03/14 10:44:22;;;;;;;2.20;1.27;;;;;;;;;;4977011;28;20414;-70
2022/03/14 10:46:48;;;;;;;1.40;1.30;;;;;;;;;;4994510;28;20518;-71
2022/03/14 10:49:15;;;;;;;1.40;1.30;;;;;;;;;;4994206;28;20413;-71
2022/03/14 10:51:55;;;;;;;1.47;1.37;;;;;;;;;;4994546;28;20425;-68
2022/03/14 10:54:20;;;;;;;1.53;1.10;;;;;;;;;;4994437;28;20947;-69
2022/03/14 10:57:05;;;;;;;2.43;1.20;;;;;;;;;;4994430;28;20418;-70
2022/03/14 10:59:37;;;;;;;1.60;1.50;;;;;;;;;;4994364;28;20423;-69
2022/03/14 11:02:04;;;;;;;1.43;1.07;;;;;;;;;;4994202;28;20484;-71
2022/03/14 11:04:41;;;;;;;6.50;1.63;;;;;;;;;;4994327;28;20456;-71
2022/03/14 11:07:07;;;;;;;3.00;1.27;;;;;;;;;;4976625;28;20845;-72
2022/03/14 11:09:46;;;;;;;1.93;1.40;;;;;;;;;;4994226;28;20511;-71
2022/03/14 11:12:14;;;;;;;2.60;1.20;;;;;;;;;;4994203;28;20405;-69
2022/03/14 11:14:40;;;;;;;2.43;1.40;;;;;;;;;;4994227;28;20406;-73
2022/03/14 11:17:20;;;;;;;1.80;1.43;;;;;;;;;;4994091;28;20414;-70
2022/03/14 11:19:46;;;;;;;2.07;1.50;;;;;;;;;;4993948;28;20407;-73
2022/03/14 11:22:13;;;;;;;1.50;1.40;;;;;;;;;;4994033;28;20427;-69
2022/03/14 11:24:43;;;;;;;1.53;1.37;;;;;;;;;;4994003;28;20411;-69
2022/03/14 11:27:28;;;;;;;1.77;1.67;;;;;;;;;;4976778;28;20394;-76
2022/03/14 11:29:55;;;;;;;6.40;1.73;;;;;;;;;;4993896;28;20450;-72
2022/03/14 11:32:21;;;;;;;1.60;1.50;;;;;;;;;;4993942;28;20416;-69
2022/03/14 11:34:48;;;;;;;2.40;1.40;;;;;;;;;;4993954;28;20420;-69
2022/03/14 11:37:16;;;;;;;2.00;1.40;;;;;;;;;;4993972;28;20434;-69
2022/03/14 11:39:42;;;;;;;6.33;1.60;;;;;;;;;;4993848;28;20951;-70
2022/03/14 11:42:08;;;;;;;1.60;1.50;;;;;;;;;;4993929;28;20912;-70
2022/03/14 11:44:35;;;;;;;4.30;1.97;;;;;;;;;;4993907;28;20411;-71
2022/03/14 11:47:01;;;;;;;2.07;1.70;;;;;;;;;;4993789;28;20489;-71
2022/03/14 11:49:28;;;;;;;2.33;1.50;;;;;;;;;;4993845;28;20454;-71
2022/03/14 11:52:11;;;;;;;1.87;1.60;;;;;;;;;;4993805;28;20415;-70
2022/03/14 11:54:43;;;;;;;4.83;2.00;;;;;;;;;;4993833;28;20427;-71
2022/03/14 11:57:10;;;;;;;2.23;2.03;;;;;;;;;;4993807;28;20916;-72
2022/03/14 11:59:37;;;;;;;1.13;1.13;;;;;;;;;;4993771;28;20416;-71
2022/03/14 12:02:05;;;;;;;1.30;1.30;;;;;;;;;;4995838;28;20485;-72
2022/03/14 12:04:34;;;;;;;5.03;1.90;;;;;;;;;;4997572;28;20446;-72
2022/03/14 12:07:00;;;;;;;1.27;1.20;;;;;;;;;;4997375;28;20481;-70
2022/03/14 12:09:26;;;;;;;4.00;1.47;;;;;;;;;;4997502;28;20403;-70
2022/03/14 12:11:56;;;;;;;3.70;1.43;;;;;;;;;;4997514;28;20417;-71
2022/03/14 12:15:01;;;;;;;1.30;1.20;;;;;;;;;;4979931;28;20527;-75
2022/03/14 12:17:28;;;;;;;3.80;1.50;;;;;;;;;;4918331;29;20475;-71
2022/03/14 12:19:55;;;;;;;1.30;1.30;;;;;;;;;;4918253;29;20471;-71
2022/03/14 12:22:27;;;;;;;1.57;1.47;;;;;;;;;;4956885;28;20910;-70
2022/03/14 12:24:53;;;;;;;1.77;1.50;;;;;;;;;;4997230;28;20465;-75
2022/03/14 12:27:21;;;;;;;2.10;1.03;;;;;;;;;;4997189;28;20896;-71
2022/03/14 12:29:51;;;;;;;3.90;1.50;;;;;;;;;;4979905;28;20414;-71
2022/03/14 12:32:24;;;;;;;3.37;1.37;;;;;;;;;;4997039;28;20425;-71
2022/03/14 12:35:21;;;;;;;2.80;2.63;;;;;;;;;;4997212;28;20424;-71
2022/03/14 12:37:52;;;;;;;0.90;0.90;;;;;;;;;;4970043;28;20446;-72
2022/03/14 12:40:21;;;;;;;1.80;1.10;;;;;;;;;;4996942;28;20499;-72
2022/03/14 12:42:48;;;;;;;12.20;6.60;;;;;;;;;;4996955;28;20440;-72
2022/03/14 12:45:31;;;;;;;3.00;2.27;;;;;;;;;;4996871;28;20436;-72
2022/03/14 12:47:58;;;;;;;1.60;1.50;;;;;;;;;;4996758;28;20505;-74
2022/03/14 12:50:43;;;;;;;2.30;1.30;;;;;;;;;;4996803;28;20417;-70
2022/03/14 12:53:13;;;;;;;6.70;3.37;;;;;;;;;;4979285;28;20426;-71
2022/03/14 12:55:49;;;;;;;4.80;3.03;;;;;;;;;;4979260;28;20531;-71
2022/03/14 12:58:21;;;;;;;9.63;5.50;;;;;;;;;;4996580;28;20464;-71
2022/03/14 13:00:48;;;;;;;17.60;6.80;;;;;;;;;;4979189;28;20836;-70
2022/03/14 13:03:19;;;;;;;12.60;6.20;;;;;;;;;;4996445;28;20944;-71
2022/03/14 13:05:45;;;;;;;2.20;2.10;;;;;;;;;;4996378;28;20394;-70
2022/03/14 13:08:11;;;;;;;1.80;1.23;;;;;;;;;;4996423;28;20416;-71
2022/03/14 13:10:38;;;;;;;5.00;1.60;;;;;;;;;;4978840;28;20478;-71
2022/03/14 13:13:04;;;;;;;1.63;1.00;;;;;;;;;;4995928;28;20410;-71
2022/03/14 13:15:30;;;;;;;2.13;1.80;;;;;;;;;;4996270;28;20421;-71
2022/03/14 13:17:56;;;;;;;3.23;2.10;;;;;;;;;;4996219;28;20479;-72
2022/03/14 13:20:26;;;;;;;3.10;2.80;;;;;;;;;;4996028;28;20497;-72
2022/03/14 13:22:52;;;;;;;1.90;1.57;;;;;;;;;;4978798;28;20447;-73
2022/03/14 13:25:35;;;;;;;1.73;1.47;;;;;;;;;;4996193;28;20511;-71
2022/03/14 13:28:01;;;;;;;5.03;1.30;;;;;;;;;;4996110;28;20505;-73
2022/03/14 13:30:47;;;;;;;1.57;1.20;;;;;;;;;;4996078;28;20409;-71
2022/03/14 13:33:23;;;;;;;1.63;1.30;;;;;;;;;;4995965;28;20469;-73
2022/03/14 13:35:49;;;;;;;1.93;1.43;;;;;;;;;;4995856;28;20495;-70
2022/03/14 13:38:35;;;;;;;3.20;3.00;;;;;;;;;;4992789;28;20464;-73
2022/03/14 13:41:03;;;;;;;2.70;1.70;;;;;;;;;;4991802;28;20478;-69
2022/03/14 13:43:29;;;;;;;2.63;1.63;;;;;;;;;;4993172;28;20520;-69
2022/03/14 13:46:13;;;;;;;2.50;2.03;;;;;;;;;;4993385;28;20490;-69
2022/03/14 13:48:50;;;;;;;5.00;2.70;;;;;;;;;;4993138;28;20519;-71
2022/03/14 13:51:16;;;;;;;2.87;2.27;;;;;;;;;;4993249;28;20408;-71
2022/03/14 13:53:46;;;;;;;1.60;1.50;;;;;;;;;;4978072;28;20487;-70
2022/03/14 13:56:12;;;;;;;1.33;1.23;;;;;;;;;;4995514;28;20408;-73
2022/03/14 13:58:39;;;;;;;2.50;1.50;;;;;;;;;;4990530;28;20898;-73
2022/03/14 14:01:05;;;;;;;4.87;1.60;;;;;;;;;;4994061;28;20869;-71
2022/03/14 14:03:32;;;;;;;1.93;1.60;;;;;;;;;;4977805;28;20528;-73
2022/03/14 14:06:15;;;;;;;2.27;1.03;;;;;;;;;;4995385;28;20467;-73
2022/03/14 14:08:41;;;;;;;1.50;1.40;;;;;;;;;;4995232;28;20417;-73
2022/03/14 14:11:08;;;;;;;2.20;1.77;;;;;;;;;;4978104;28;20913;-72
2022/03/14 14:13:49;;;;;;;2.27;1.50;;;;;;;;;;4995144;28;20416;-73
2022/03/14 14:16:18;;;;;;;1.97;0.97;;;;;;;;;;4995335;28;20436;-72
2022/03/14 14:18:44;;;;;;;2.00;1.23;;;;;;;;;;4994933;28;20889;-71
2022/03/14 14:21:18;;;;;;;3.90;1.07;;;;;;;;;;4994968;28;20492;-74
2022/03/14 14:23:44;;;;;;;3.83;1.97;;;;;;;;;;4994481;28;20426;-75
2022/03/14 14:26:10;;;;;;;6.77;2.00;;;;;;;;;;4994886;28;20448;-74
2022/03/14 14:28:38;;;;;;;1.53;1.40;;;;;;;;;;4994960;28;20407;-76
2022/03/14 14:31:04;;;;;;;7.43;4.43;;;;;;;;;;4994895;28;20410;-74
2022/03/14 14:33:31;;;;;;;4.30;2.93;;;;;;;;;;4994792;28;20917;-74
2022/03/14 14:35:58;;;;;;;2.40;1.47;;;;;;;;;;4994826;28;20402;-76
2022/03/14 14:38:25;;;;;;;2.30;2.10;;;;;;;;;;4994723;28;20501;-74
2022/03/14 14:40:52;;;;;;;2.80;1.60;;;;;;;;;;4994591;28;20470;-71
2022/03/14 14:43:19;;;;;;;1.50;1.40;;;;;;;;;;4994559;28;20411;-71
2022/03/14 14:45:45;;;;;;;4.83;2.00;;;;;;;;;;4994602;28;20439;-70